createdAt,value
2022-12-18T00:02:04.618Z,86.03
2022-12-18T00:04:38.321Z,86.78
2022-12-18T00:07:05.445Z,90.80
2022-12-18T00:09:40.571Z,99.65
2022-12-18T00:14:52.360Z,90.60
2022-12-18T13:52:04.237Z,44.75
2022-12-18T13:54:36.871Z,40.70
2022-12-18T13:57:41.209Z,36.35
2022-12-18T14:00:20.406Z,37.03
2022-12-18T14:02:54.193Z,37.97
2022-12-18T14:05:30.707Z,42.67
2022-12-18T14:08:09.328Z,49.60
2022-12-18T14:10:48.627Z,41.28
2022-12-18T14:13:26.129Z,53.00
2022-12-18T14:15:53.397Z,41.17
2022-12-18T14:18:31.184Z,42.72
2022-12-18T14:21:02.655Z,41.65
2022-12-18T14:23:50.302Z,52.67
2022-12-18T14:26:26.280Z,52.17
2022-12-18T14:29:01.103Z,51.70
2022-12-18T14:31:37.040Z,55.88
2022-12-18T14:34:04.422Z,49.72
2022-12-18T14:36:38.071Z,51.33
2022-12-18T14:39:05.476Z,51.60
2022-12-18T14:41:41.184Z,43.08
2022-12-18T14:44:12.565Z,57.28
2022-12-18T14:46:50.189Z,54.47
2022-12-18T14:49:33.949Z,49.90
2022-12-18T14:52:15.219Z,40.55
2022-12-18T14:54:48.046Z,53.90
2022-12-18T14:57:41.062Z,55.08
2022-12-18T15:00:16.190Z,37.72
2022-12-18T15:02:44.640Z,52.17
2022-12-18T15:05:21.263Z,50.97
2022-12-18T15:07:53.134Z,47.90
2022-12-18T15:10:20.994Z,48.50
2022-12-18T15:12:55.106Z,48.92
2022-12-18T15:15:34.717Z,44.25
2022-12-18T15:18:09.106Z,48.00
2022-12-18T15:20:42.287Z,45.10
2022-12-18T15:23:39.624Z,62.58
2022-12-18T15:26:09.814Z,68.38
2022-12-18T15:28:53.435Z,62.80
2022-12-18T15:31:35.742Z,52.83
2022-12-18T15:34:34.298Z,65.28
2022-12-18T15:37:01.605Z,52.80
2022-12-18T15:39:28.702Z,56.38
2022-12-18T15:42:21.412Z,56.35
2022-12-18T15:44:49.471Z,47.78
2022-12-18T15:47:16.551Z,63.35
2022-12-18T15:49:50.144Z,55.72
2022-12-18T15:52:26.878Z,59.08
2022-12-18T15:55:19.282Z,53.15
2022-12-18T15:57:53.108Z,61.65
2022-12-18T16:00:34.261Z,67.30
2022-12-18T16:03:01.617Z,50.45
2022-12-18T16:08:02.323Z,55.10
2022-12-18T16:10:29.710Z,77.35
2022-12-18T16:13:10.206Z,64.00
2022-12-18T16:15:37.450Z,65.82
2022-12-18T16:18:11.106Z,59.95
2022-12-18T16:20:39.961Z,51.10
2022-12-18T16:23:07.082Z,63.75
2022-12-18T16:25:41.264Z,56.58
2022-12-18T16:28:08.515Z,63.30
2022-12-18T16:30:42.314Z,60.38
2022-12-18T16:33:10.181Z,76.75
2022-12-18T16:35:38.180Z,66.85
2022-12-18T16:38:12.391Z,66.43
2022-12-18T16:40:59.522Z,66.55
2022-12-18T16:43:33.131Z,67.68
2022-12-18T16:46:00.730Z,69.03
2022-12-18T16:51:05.446Z,81.13
2022-12-18T16:53:41.745Z,84.30
2022-12-18T16:56:09.186Z,115.78
2022-12-18T16:58:49.286Z,100.38
2022-12-18T17:01:16.591Z,117.88
2022-12-18T17:03:44.437Z,123.25
2022-12-18T17:06:20.168Z,127.55
2022-12-18T17:08:47.463Z,131.00
2022-12-18T17:11:21.061Z,207.10
2022-12-18T17:13:48.353Z,160.38
2022-12-18T17:16:22.127Z,152.95
2022-12-18T17:18:49.666Z,164.07
2022-12-18T17:21:16.993Z,191.10
2022-12-18T17:23:51.174Z,226.13
2022-12-18T17:26:18.345Z,241.30
2022-12-18T17:28:52.307Z,189.95
2022-12-18T17:31:20.563Z,169.40
2022-12-18T17:33:47.890Z,240.20
2022-12-18T17:36:22.280Z,337.55
2022-12-18T17:38:53.140Z,242.35
2022-12-18T17:41:27.266Z,244.98
2022-12-18T17:44:01.883Z,260.63
2022-12-18T17:46:37.284Z,346.48
2022-12-18T17:49:04.542Z,273.67
2022-12-18T17:51:31.676Z,270.13
2022-12-18T17:54:05.401Z,219.10
2022-12-18T17:56:32.928Z,263.52
2022-12-18T17:59:13.152Z,234.02
2022-12-18T18:01:47.301Z,284.20
2022-12-18T18:04:21.407Z,266.15
2022-12-18T18:06:48.641Z,299.17
2022-12-18T18:09:16.936Z,330.50
2022-12-18T18:12:10.414Z,374.10
2022-12-18T18:14:37.796Z,306.83
2022-12-18T18:17:05.906Z,321.67
2022-12-18T18:19:40.146Z,321.08
2022-12-18T18:22:07.884Z,362.48
2022-12-18T18:24:42.327Z,450.88
2022-12-18T18:27:09.483Z,341.08
2022-12-18T18:29:36.601Z,463.95
2022-12-18T18:32:10.274Z,599.35
2022-12-18T18:34:40.617Z,490.45
2022-12-18T18:37:14.324Z,475.90
2022-12-18T18:39:41.586Z,481.20
2022-12-18T18:42:08.786Z,475.20
2022-12-18T18:44:45.863Z,571.83
2022-12-18T18:47:16.040Z,500.10
2022-12-18T18:49:50.291Z,490.10
2022-12-18T18:52:17.466Z,603.97
2022-12-18T18:55:10.683Z,442.73
2022-12-18T18:57:38.293Z,480.85
2022-12-18T19:00:12.628Z,509.30
2022-12-18T19:02:46.284Z,609.03
2022-12-18T19:05:13.474Z,436.15
2022-12-18T19:07:47.089Z,617.42
2022-12-18T19:10:14.308Z,661.78
2022-12-18T19:13:06.101Z,695.85
2022-12-18T19:15:34.547Z,601.97
2022-12-18T19:18:01.961Z,471.80
2022-12-18T19:20:36.171Z,531.75
2022-12-18T19:23:03.587Z,501.77
2022-12-18T19:25:42.177Z,347.77
2022-12-18T19:28:13.493Z,494.55
2022-12-18T19:30:57.617Z,483.48
2022-12-18T19:33:42.437Z,435.33
2022-12-18T19:36:18.494Z,477.20
2022-12-18T19:38:46.216Z,539.92
2022-12-18T19:41:14.822Z,497.55
2022-12-18T19:43:48.171Z,493.15
2022-12-18T19:46:16.797Z,436.00
2022-12-18T19:48:51.228Z,420.05
2022-12-18T19:51:19.910Z,344.30
2022-12-18T19:53:47.323Z,410.08
2022-12-18T19:56:23.275Z,423.45
2022-12-18T19:58:57.115Z,334.13
2022-12-18T20:01:31.411Z,391.67
2022-12-18T20:03:59.774Z,370.38
2022-12-18T20:06:29.858Z,332.17
2022-12-18T20:09:05.410Z,402.45
2022-12-18T20:11:33.527Z,435.08
2022-12-18T20:14:11.329Z,420.40
2022-12-18T20:16:38.820Z,375.55
2022-12-18T20:19:06.299Z,398.80
2022-12-18T20:21:40.414Z,375.48
2022-12-18T20:24:08.712Z,362.75
2022-12-18T20:26:35.888Z,310.52
2022-12-18T20:29:09.225Z,306.98
2022-12-18T20:31:36.888Z,296.48
2022-12-18T20:34:11.262Z,278.95
2022-12-18T20:36:45.380Z,286.02
2022-12-18T20:39:26.295Z,247.20
2022-12-18T20:41:56.167Z,273.58
2022-12-18T20:44:30.310Z,281.67
2022-12-18T20:47:00.315Z,239.10
2022-12-18T20:49:38.317Z,249.95
2022-12-18T20:52:08.297Z,260.30
2022-12-18T20:57:09.199Z,237.13
2022-12-18T20:59:47.867Z,271.52
2022-12-18T21:02:22.490Z,269.48
2022-12-18T21:04:50.104Z,268.52
2022-12-18T21:07:24.406Z,268.08
2022-12-18T21:09:51.557Z,267.98
2022-12-18T21:13:00.211Z,260.52
2022-12-18T21:15:37.127Z,236.02
2022-12-18T21:18:11.282Z,210.65
2022-12-18T21:20:45.551Z,200.10
2022-12-18T21:23:16.506Z,195.98
2022-12-18T21:25:45.343Z,176.30
2022-12-18T21:28:22.302Z,158.63
2022-12-18T21:30:50.417Z,143.85
2022-12-18T21:33:24.221Z,133.85
2022-12-18T21:35:51.522Z,130.32
2022-12-18T21:38:25.390Z,112.47
2022-12-18T21:40:52.630Z,135.80
2022-12-18T21:43:45.508Z,145.73
2022-12-18T21:46:12.814Z,141.85
2022-12-18T21:48:40.188Z,114.85
2022-12-18T21:51:14.292Z,109.13
2022-12-18T21:53:41.446Z,94.53
2022-12-18T21:56:15.499Z,98.60
2022-12-18T21:58:57.250Z,87.20
2022-12-18T22:01:37.756Z,77.10
2022-12-18T22:04:05.293Z,94.13
2022-12-18T22:06:39.397Z,85.13
2022-12-18T22:09:06.940Z,83.75
2022-12-18T22:14:08.267Z,72.63
2022-12-18T22:16:35.691Z,74.57
2022-12-18T22:19:10.371Z,59.30
2022-12-18T22:21:38.772Z,60.78
2022-12-18T22:24:07.325Z,56.08
2022-12-18T22:26:42.209Z,54.95
2022-12-18T22:29:39.216Z,63.70
2022-12-18T22:32:13.218Z,58.45
2022-12-18T22:34:49.131Z,64.95
2022-12-18T22:37:16.284Z,62.35
2022-12-18T22:39:50.164Z,54.40
2022-12-18T22:42:17.642Z,44.53
2022-12-18T22:44:51.155Z,61.03
2022-12-18T22:47:18.375Z,52.05
2022-12-18T22:49:45.750Z,55.63
2022-12-18T22:52:19.409Z,51.40
2022-12-18T22:54:49.753Z,57.13
2022-12-18T22:57:16.833Z,55.55
2022-12-18T22:59:50.264Z,47.40
2022-12-18T23:02:18.192Z,48.08
2022-12-18T23:04:45.838Z,50.97
2022-12-18T23:09:46.942Z,46.33
2022-12-18T23:12:26.265Z,40.45
2022-12-18T23:14:53.500Z,45.97
2022-12-18T23:17:20.597Z,50.10
2022-12-18T23:19:54.231Z,43.83
2022-12-18T23:22:21.381Z,40.00
2022-12-18T23:24:55.315Z,40.30
2022-12-18T23:27:22.474Z,34.03
2022-12-18T23:29:56.249Z,41.15
2022-12-18T23:32:25.627Z,38.33
2022-12-18T23:34:52.739Z,37.63
2022-12-18T23:37:50.290Z,32.70
2022-12-18T23:40:13.607Z,44.63
2022-12-18T23:42:48.361Z,43.53
2022-12-18T23:45:17.545Z,32.67
2022-12-18T23:47:45.173Z,32.22
2022-12-18T23:50:27.723Z,31.92
2022-12-18T23:52:56.379Z,33.70
2022-12-18T23:55:32.370Z,29.38
2022-12-18T23:58:19.168Z,34.33
